createdAt,value
2022-08-02T00:00:35.866Z,50.97
2022-08-02T00:03:04.178Z,51.10
2022-08-02T00:05:32.124Z,51.21
2022-08-02T00:08:00.099Z,51.13
2022-08-02T00:10:30.532Z,51.17
2022-08-02T00:12:59.082Z,51.34
2022-08-02T00:15:27.023Z,51.28
2022-08-02T00:17:55.390Z,51.31
2022-08-02T00:20:23.383Z,51.20
2022-08-02T00:22:51.307Z,51.10
2022-08-02T00:25:19.631Z,51.11
2022-08-02T00:27:48.954Z,51.10
2022-08-02T00:30:16.950Z,51.29
2022-08-02T00:32:45.253Z,51.39
2022-08-02T00:35:13.247Z,51.57
2022-08-02T00:37:42.150Z,51.88
2022-08-02T00:40:12.206Z,51.78
2022-08-02T00:42:40.734Z,51.96
2022-08-02T00:45:10.865Z,51.97
2022-08-02T00:47:39.258Z,52.22
2022-08-02T00:50:07.738Z,52.30
2022-08-02T00:52:35.709Z,52.51
2022-08-02T00:55:04.066Z,52.55
2022-08-02T00:57:31.985Z,52.44
2022-08-02T00:59:59.958Z,52.62
2022-08-02T01:02:29.668Z,52.53
2022-08-02T01:04:57.670Z,52.67
2022-08-02T01:07:25.710Z,52.57
2022-08-02T01:09:54.000Z,52.59
2022-08-02T01:12:22.071Z,52.74
2022-08-02T01:14:56.600Z,52.81
2022-08-02T01:17:35.515Z,53.11
2022-08-02T01:20:13.209Z,54.01
2022-08-02T01:23:02.152Z,53.87
2022-08-02T01:25:51.394Z,53.55
2022-08-02T01:28:30.895Z,54.44
2022-08-02T01:31:03.651Z,56.14
2022-08-02T01:33:37.487Z,53.93
2022-08-02T01:36:08.813Z,54.09
2022-08-02T01:38:40.978Z,53.57
2022-08-02T01:41:14.784Z,54.22
2022-08-02T01:43:46.643Z,53.61
2022-08-02T01:46:17.598Z,55.05
2022-08-02T01:48:47.290Z,53.82
2022-08-02T01:51:18.440Z,53.84
2022-08-02T01:53:50.996Z,54.68
2022-08-02T01:56:21.045Z,54.41
2022-08-02T01:58:50.989Z,53.72
2022-08-02T02:01:21.876Z,54.05
2022-08-02T02:03:50.502Z,53.66
2022-08-02T02:06:20.108Z,53.60
2022-08-02T02:08:50.970Z,53.57
2022-08-02T02:12:06.215Z,53.71
2022-08-02T02:14:09.144Z,53.67
2022-08-02T02:16:38.530Z,53.56
2022-08-02T02:19:08.552Z,53.70
2022-08-02T02:21:36.841Z,54.03
2022-08-02T02:24:09.085Z,54.35
2022-08-02T02:26:42.952Z,54.10
2022-08-02T02:29:26.356Z,53.93
2022-08-02T02:31:56.046Z,54.27
2022-08-02T02:34:28.994Z,54.32
2022-08-02T02:37:00.384Z,55.09
2022-08-02T02:39:30.005Z,54.79
2022-08-02T02:42:03.150Z,54.33
2022-08-02T02:44:34.323Z,54.85
2022-08-02T02:47:03.520Z,54.95
2022-08-02T02:49:33.976Z,54.29
2022-08-02T02:52:03.260Z,54.58
2022-08-02T02:54:35.435Z,54.58
2022-08-02T02:57:06.508Z,54.72
2022-08-02T02:59:48.993Z,54.94
2022-08-02T03:02:18.833Z,55.38
2022-08-02T03:04:57.061Z,55.51
2022-08-02T03:07:27.286Z,55.40
2022-08-02T03:09:55.949Z,55.77
2022-08-02T03:12:31.487Z,55.72
2022-08-02T03:15:04.081Z,56.12
2022-08-02T03:17:39.640Z,55.88
2022-08-02T03:20:11.008Z,57.26
2022-08-02T03:22:39.134Z,56.32
2022-08-02T03:25:08.865Z,56.00
2022-08-02T03:27:36.827Z,55.59
2022-08-02T03:30:08.831Z,55.69
2022-08-02T03:32:38.642Z,55.95
2022-08-02T03:35:08.948Z,55.50
2022-08-02T03:37:38.459Z,55.36
2022-08-02T03:40:09.310Z,55.11
2022-08-02T03:42:38.407Z,55.31
2022-08-02T03:45:11.216Z,55.04
2022-08-02T03:47:40.483Z,55.48
2022-08-02T03:50:12.472Z,55.72
2022-08-02T03:52:42.505Z,56.17
2022-08-02T03:55:11.698Z,55.95
2022-08-02T03:57:40.347Z,56.01
2022-08-02T04:00:12.999Z,55.79
2022-08-02T04:02:40.918Z,56.12
2022-08-02T04:05:09.751Z,55.66
2022-08-02T04:08:34.178Z,55.84
2022-08-02T04:10:25.937Z,56.12
2022-08-02T04:12:54.198Z,55.94
2022-08-02T04:15:24.517Z,55.89
2022-08-02T04:17:57.508Z,56.16
2022-08-02T04:20:29.423Z,55.97
2022-08-02T04:23:01.480Z,56.39
2022-08-02T04:25:38.215Z,55.75
2022-08-02T04:28:17.214Z,55.59
2022-08-02T04:30:48.432Z,55.50
2022-08-02T04:33:16.996Z,55.79
2022-08-02T04:35:47.026Z,55.48
2022-08-02T04:38:16.922Z,55.35
2022-08-02T04:40:52.321Z,55.48
2022-08-02T04:43:23.715Z,55.86
2022-08-02T04:45:55.038Z,54.96
2022-08-02T04:48:24.487Z,55.28
2022-08-02T04:50:53.082Z,55.08
2022-08-02T04:53:21.071Z,55.24
2022-08-02T04:55:49.213Z,55.36
2022-08-02T04:58:39.832Z,55.58
2022-08-02T05:01:06.767Z,55.84
2022-08-02T05:03:34.946Z,56.24
2022-08-02T05:06:03.527Z,56.33
2022-08-02T05:08:46.848Z,55.89
2022-08-02T05:11:21.288Z,55.55
2022-08-02T05:13:58.016Z,55.55
2022-08-02T05:16:31.281Z,55.44
2022-08-02T05:19:00.334Z,55.01
2022-08-02T05:21:28.964Z,55.01
2022-08-02T05:23:56.920Z,55.01
2022-08-02T05:26:25.095Z,54.99
2022-08-02T05:28:55.211Z,55.05
2022-08-02T05:31:23.122Z,55.26
2022-08-02T05:33:52.787Z,55.08
2022-08-02T05:36:21.656Z,55.03
2022-08-02T05:38:50.810Z,54.80
2022-08-02T05:41:19.109Z,54.80
2022-08-02T05:43:47.157Z,55.24
2022-08-02T05:46:15.358Z,55.02
2022-08-02T05:48:45.193Z,54.70
2022-08-02T05:51:23.221Z,54.43
2022-08-02T05:53:55.336Z,55.09
2022-08-02T05:56:33.859Z,53.91
2022-08-02T05:59:06.008Z,53.86
2022-08-02T06:01:36.947Z,53.61
2022-08-02T06:04:08.165Z,53.03
2022-08-02T06:06:38.726Z,52.92
2022-08-02T06:09:10.803Z,52.73
2022-08-02T06:12:02.678Z,53.05
2022-08-02T06:14:33.229Z,52.54
2022-08-02T06:17:04.603Z,52.36
2022-08-02T06:19:46.980Z,51.99
2022-08-02T06:22:42.029Z,51.76
2022-08-02T06:25:47.840Z,51.52
2022-08-02T06:28:00.676Z,51.26
2022-08-02T06:30:29.714Z,50.88
2022-08-02T06:32:57.661Z,50.40
2022-08-02T06:35:31.867Z,50.18
2022-08-02T06:38:03.319Z,50.05
2022-08-02T06:40:34.192Z,50.03
2022-08-02T06:43:11.949Z,49.96
2022-08-02T06:45:40.671Z,49.57
2022-08-02T06:48:09.801Z,49.71
2022-08-02T06:50:38.822Z,49.51
2022-08-02T06:53:08.662Z,49.12
2022-08-02T06:55:43.354Z,49.18
2022-08-02T06:58:13.040Z,49.29
2022-08-02T07:00:41.727Z,49.00
2022-08-02T07:03:09.775Z,48.81
2022-08-02T07:05:37.833Z,48.82
2022-08-02T07:08:08.919Z,48.47
2022-08-02T07:10:38.124Z,48.40
2022-08-02T07:13:08.284Z,48.18
2022-08-02T07:15:36.318Z,48.36
2022-08-02T07:18:04.410Z,48.51
2022-08-02T07:20:32.842Z,48.25
2022-08-02T07:23:00.743Z,48.02
2022-08-02T07:26:01.639Z,48.00
2022-08-02T07:28:23.650Z,48.04
2022-08-02T07:30:52.633Z,47.36
2022-08-02T07:33:37.781Z,47.23
2022-08-02T07:36:09.760Z,47.06
2022-08-02T07:38:45.574Z,47.06
2022-08-02T07:41:13.674Z,46.93
2022-08-02T07:43:42.974Z,46.01
2022-08-02T07:46:11.202Z,45.71
2022-08-02T07:48:39.145Z,45.69
2022-08-02T07:51:07.090Z,45.55
2022-08-02T07:53:50.770Z,45.15
2022-08-02T07:56:19.623Z,44.63
2022-08-02T07:58:49.530Z,45.18
2022-08-02T08:01:18.366Z,44.98
2022-08-02T08:03:46.809Z,45.17
2022-08-02T08:06:14.881Z,45.14
2022-08-02T08:08:44.301Z,45.03
2022-08-02T08:11:12.477Z,44.50
2022-08-02T08:13:40.776Z,44.66
2022-08-02T08:16:10.005Z,44.73
2022-08-02T08:18:38.149Z,44.28
2022-08-02T08:21:06.181Z,44.47
2022-08-02T08:23:35.353Z,43.68
2022-08-02T08:26:03.794Z,43.79
2022-08-02T08:28:31.881Z,43.78
2022-08-02T08:30:59.814Z,43.58
2022-08-02T08:33:29.492Z,43.85
2022-08-02T08:35:58.139Z,43.25
2022-08-02T08:38:26.254Z,43.45
2022-08-02T08:40:56.966Z,43.64
2022-08-02T08:43:24.861Z,43.43
2022-08-02T08:45:55.879Z,43.17
2022-08-02T08:48:31.283Z,42.98
2022-08-02T08:51:08.619Z,42.91
2022-08-02T08:53:43.125Z,41.25
2022-08-02T08:56:16.180Z,42.04
2022-08-02T08:58:47.319Z,42.06
2022-08-02T09:01:16.901Z,42.22
2022-08-02T09:03:46.010Z,41.97
2022-08-02T09:06:15.395Z,42.09
2022-08-02T09:08:43.495Z,42.00
2022-08-02T09:11:15.066Z,41.92
2022-08-02T09:13:51.819Z,41.57
2022-08-02T09:16:32.252Z,40.34
2022-08-02T09:19:01.857Z,39.61
2022-08-02T09:21:38.870Z,41.21
2022-08-02T09:24:17.571Z,39.67
2022-08-02T09:26:46.311Z,38.74
2022-08-02T09:29:15.262Z,41.20
2022-08-02T09:31:49.928Z,41.09
2022-08-02T09:34:20.051Z,40.99
2022-08-02T09:36:54.314Z,40.95
2022-08-02T09:39:26.347Z,40.59
2022-08-02T09:42:08.259Z,40.55
2022-08-02T09:44:36.595Z,40.57
2022-08-02T09:47:16.446Z,40.70
2022-08-02T09:49:52.260Z,36.58
2022-08-02T09:52:37.398Z,39.69
2022-08-02T09:55:13.440Z,38.73
2022-08-02T09:57:41.458Z,40.30
2022-08-02T10:00:14.867Z,40.13
2022-08-02T10:03:09.056Z,39.87
2022-08-02T10:05:55.598Z,36.99
2022-08-02T10:08:26.899Z,37.60
2022-08-02T10:11:00.456Z,39.60
2022-08-02T10:13:30.931Z,39.36
2022-08-02T10:15:59.425Z,39.75
2022-08-02T10:18:42.789Z,39.52
2022-08-02T10:21:16.944Z,39.00
2022-08-02T10:23:49.830Z,37.73
2022-08-02T10:26:19.439Z,38.15
2022-08-02T10:28:49.502Z,39.07
2022-08-02T10:31:22.083Z,38.91
2022-08-02T10:33:52.973Z,37.60
2022-08-02T10:36:23.671Z,38.88
2022-08-02T10:38:54.268Z,38.83
2022-08-02T10:41:41.546Z,38.83
2022-08-02T10:44:24.363Z,36.02
2022-08-02T10:46:54.414Z,38.29
2022-08-02T10:49:39.059Z,38.21
2022-08-02T10:52:10.034Z,38.08
2022-08-02T10:54:41.969Z,37.01
2022-08-02T10:57:22.031Z,37.17
2022-08-02T10:59:51.373Z,33.66
2022-08-02T11:02:38.451Z,37.13
2022-08-02T11:05:09.785Z,33.01
2022-08-02T11:07:39.809Z,36.97
2022-08-02T11:10:35.586Z,37.01
2022-08-02T11:13:07.821Z,33.92
2022-08-02T11:16:10.611Z,36.63
2022-08-02T11:19:06.661Z,33.75
2022-08-02T11:21:35.906Z,33.88
2022-08-02T11:24:28.004Z,36.91
2022-08-02T11:26:58.098Z,33.43
2022-08-02T11:29:38.216Z,36.31
2022-08-02T11:32:08.010Z,33.27
2022-08-02T11:34:37.282Z,35.94
2022-08-02T11:37:06.521Z,35.91
2022-08-02T11:39:34.398Z,34.82
2022-08-02T11:42:04.077Z,35.56
2022-08-02T11:44:41.717Z,34.33
2022-08-02T11:47:10.066Z,31.38
2022-08-02T11:49:38.518Z,35.13
2022-08-02T11:52:11.065Z,34.92
2022-08-02T11:54:41.398Z,34.87
2022-08-02T11:57:19.757Z,35.05
2022-08-02T11:59:50.929Z,33.13
2022-08-02T12:02:20.456Z,34.58
2022-08-02T12:04:58.467Z,34.95
2022-08-02T12:07:31.969Z,33.13
2022-08-02T12:10:06.398Z,34.88
2022-08-02T12:12:48.986Z,34.34
2022-08-02T12:15:30.259Z,30.78
2022-08-02T12:18:15.991Z,33.34
2022-08-02T12:20:44.412Z,34.08
2022-08-02T12:23:12.368Z,33.80
2022-08-02T12:25:40.549Z,34.04
2022-08-02T12:28:22.291Z,34.24
2022-08-02T12:30:52.609Z,31.47
2022-08-02T12:35:39.044Z,33.77
2022-08-02T12:38:11.399Z,33.77
2022-08-02T12:40:39.807Z,34.08
2022-08-02T12:43:11.211Z,33.98
2022-08-02T12:45:49.129Z,32.87
2022-08-02T12:48:19.027Z,30.36
2022-08-02T12:50:48.618Z,31.91
2022-08-02T12:53:19.088Z,33.64
2022-08-02T12:56:00.395Z,33.08
2022-08-02T12:58:30.797Z,31.77
2022-08-02T13:01:01.111Z,32.86
2022-08-02T13:04:09.664Z,32.69
2022-08-02T13:06:42.060Z,32.76
2022-08-02T13:09:16.750Z,31.94
2022-08-02T13:11:45.141Z,30.02
2022-08-02T13:14:14.179Z,32.29
2022-08-02T13:16:43.829Z,32.30
2022-08-02T13:19:13.139Z,31.75
2022-08-02T13:22:01.011Z,31.93
2022-08-02T13:24:38.557Z,31.37
2022-08-02T13:27:09.974Z,31.89
2022-08-02T13:29:39.043Z,32.01
2022-08-02T13:32:07.239Z,31.94
2022-08-02T13:34:35.465Z,31.71
2022-08-02T13:37:05.582Z,31.39
2022-08-02T13:39:33.665Z,31.26
2022-08-02T13:42:01.649Z,31.50
2022-08-02T13:44:35.818Z,31.15
2022-08-02T13:47:03.914Z,31.10
2022-08-02T13:49:38.508Z,31.47
2022-08-02T13:52:19.733Z,31.58
2022-08-02T13:54:47.909Z,31.34
2022-08-02T13:57:15.822Z,31.23
2022-08-02T13:59:57.800Z,30.52
2022-08-02T14:02:28.675Z,30.57
2022-08-02T14:04:57.065Z,30.56
2022-08-02T14:07:26.307Z,30.76
2022-08-02T14:09:54.175Z,30.17
2022-08-02T14:12:22.387Z,29.84
2022-08-02T14:14:50.573Z,30.08
2022-08-02T14:17:19.671Z,29.96
2022-08-02T14:19:47.835Z,30.07
2022-08-02T14:22:15.783Z,29.99
2022-08-02T14:24:45.302Z,29.67
2022-08-02T14:27:13.602Z,29.66
2022-08-02T14:29:41.539Z,29.38
2022-08-02T14:32:09.958Z,29.44
2022-08-02T14:34:38.414Z,29.75
2022-08-02T14:37:06.366Z,29.75
2022-08-02T14:39:43.569Z,29.91
2022-08-02T14:42:23.748Z,29.54
2022-08-02T14:44:51.651Z,29.12
2022-08-02T14:47:19.791Z,28.77
2022-08-02T14:49:50.285Z,28.25
2022-08-02T14:52:19.759Z,29.26
2022-08-02T14:54:48.012Z,28.93
2022-08-02T14:57:16.972Z,28.45
2022-08-02T14:59:47.208Z,28.94
2022-08-02T15:02:15.953Z,28.73
2022-08-02T15:04:44.175Z,28.95
2022-08-02T15:07:15.258Z,28.70
2022-08-02T15:09:43.443Z,28.65
2022-08-02T15:12:12.478Z,28.42
2022-08-02T15:14:41.107Z,26.80
2022-08-02T15:17:10.952Z,27.49
2022-08-02T15:19:58.100Z,27.19
2022-08-02T15:22:29.386Z,27.21
2022-08-02T15:24:59.257Z,27.54
2022-08-02T15:27:27.179Z,27.57
2022-08-02T15:30:00.090Z,27.18
2022-08-02T15:32:29.797Z,27.40
2022-08-02T15:34:57.972Z,26.25
2022-08-02T15:37:26.012Z,26.96
2022-08-02T15:39:59.969Z,27.37
2022-08-02T15:42:30.426Z,27.78
2022-08-02T15:45:00.618Z,28.08
2022-08-02T15:47:29.934Z,27.40
2022-08-02T15:49:58.584Z,27.60
2022-08-02T15:52:28.615Z,26.88
2022-08-02T15:55:07.135Z,26.64
2022-08-02T15:57:36.302Z,26.39
2022-08-02T16:00:05.988Z,25.48
2022-08-02T16:02:35.470Z,25.60
2022-08-02T16:05:03.362Z,25.54
2022-08-02T16:07:42.330Z,25.41
2022-08-02T16:10:11.740Z,26.17
2022-08-02T16:12:39.691Z,25.39
2022-08-02T16:15:09.425Z,25.92
2022-08-02T16:17:48.672Z,26.28
2022-08-02T16:20:23.128Z,26.06
2022-08-02T16:22:51.075Z,26.06
2022-08-02T16:25:19.110Z,25.78
2022-08-02T16:28:06.817Z,25.96
2022-08-02T16:30:35.380Z,25.91
2022-08-02T16:33:05.059Z,25.63
2022-08-02T16:35:34.774Z,25.68
2022-08-02T16:38:02.840Z,25.96
2022-08-02T16:40:32.582Z,26.02
2022-08-02T16:43:00.635Z,25.88
2022-08-02T16:45:29.372Z,26.19
2022-08-02T16:48:05.517Z,26.19
2022-08-02T16:50:35.553Z,26.09
2022-08-02T16:53:07.143Z,26.91
2022-08-02T16:55:53.272Z,27.33
2022-08-02T16:58:21.525Z,27.71
2022-08-02T17:00:49.464Z,28.26
2022-08-02T17:03:17.426Z,28.07
2022-08-02T17:05:56.008Z,28.49
2022-08-02T17:08:31.629Z,27.89
2022-08-02T17:11:03.411Z,26.71
2022-08-02T17:13:34.485Z,26.84
2022-08-02T17:16:20.645Z,26.58
2022-08-02T17:18:53.926Z,25.68
2022-08-02T17:21:23.823Z,26.48
2022-08-02T17:24:05.580Z,25.06
2022-08-02T17:26:35.308Z,24.89
2022-08-02T17:29:15.362Z,24.75
2022-08-02T17:32:05.224Z,24.46
2022-08-02T17:34:35.450Z,25.47
2022-08-02T17:37:06.338Z,25.76
2022-08-02T17:39:44.209Z,25.76
2022-08-02T17:42:23.072Z,26.47
2022-08-02T17:45:06.775Z,26.35
2022-08-02T17:48:04.580Z,26.91
2022-08-02T17:50:34.132Z,27.34
2022-08-02T17:53:03.660Z,27.47
2022-08-02T17:55:33.149Z,27.26
2022-08-02T17:58:01.075Z,27.55
2022-08-02T18:00:34.159Z,28.36
2022-08-02T18:03:05.446Z,28.48
2022-08-02T18:05:39.109Z,29.58
2022-08-02T18:08:10.125Z,30.56
2022-08-02T18:10:39.288Z,30.48
2022-08-02T18:13:07.395Z,31.24
2022-08-02T18:15:36.194Z,31.78
2022-08-02T18:18:04.170Z,31.81
2022-08-02T18:20:32.369Z,32.30
2022-08-02T18:23:00.610Z,32.89
2022-08-02T18:25:37.221Z,33.35
2022-08-02T18:28:15.068Z,33.69
2022-08-02T18:30:43.555Z,34.20
2022-08-02T18:35:59.982Z,34.62
2022-08-02T18:38:30.215Z,35.03
2022-08-02T18:41:02.438Z,35.23
2022-08-02T18:43:36.398Z,35.61
2022-08-02T18:46:15.439Z,35.97
2022-08-02T18:48:46.593Z,36.41
2022-08-02T18:51:36.666Z,36.57
2022-08-02T18:54:05.640Z,36.25
2022-08-02T18:56:34.861Z,35.88
2022-08-02T18:59:07.758Z,35.45
2022-08-02T19:01:48.670Z,36.65
2022-08-02T19:04:26.801Z,36.47
2022-08-02T19:07:06.982Z,36.66
2022-08-02T19:09:39.773Z,36.78
2022-08-02T19:12:11.556Z,36.65
2022-08-02T19:14:40.190Z,37.72
2022-08-02T19:17:15.864Z,38.15
2022-08-02T19:19:56.556Z,38.61
2022-08-02T19:22:25.328Z,38.98
2022-08-02T19:25:00.006Z,39.17
2022-08-02T19:27:34.152Z,39.57
2022-08-02T19:30:03.429Z,40.31
2022-08-02T19:32:40.763Z,40.15
2022-08-02T19:35:29.778Z,40.47
2022-08-02T19:38:08.550Z,39.45
2022-08-02T19:40:37.494Z,42.83
2022-08-02T19:44:26.003Z,40.87
2022-08-02T19:45:57.223Z,40.94
2022-08-02T19:48:26.871Z,40.95
2022-08-02T19:51:00.924Z,40.80
2022-08-02T19:53:47.757Z,41.15
2022-08-02T19:56:24.838Z,41.72
2022-08-02T19:58:57.719Z,41.63
2022-08-02T20:01:39.410Z,42.80
2022-08-02T20:04:13.345Z,42.91
2022-08-02T20:06:45.083Z,42.35
2022-08-02T20:09:16.596Z,41.94
2022-08-02T20:11:45.536Z,42.48
2022-08-02T20:14:15.392Z,42.66
2022-08-02T20:16:44.245Z,42.64
2022-08-02T20:19:14.512Z,43.01
2022-08-02T20:21:52.963Z,43.00
2022-08-02T20:27:16.768Z,43.65
2022-08-02T20:29:50.758Z,43.72
2022-08-02T20:32:23.473Z,43.86
2022-08-02T20:34:52.810Z,43.96
2022-08-02T20:37:59.306Z,44.07
2022-08-02T20:40:16.749Z,44.32
2022-08-02T20:42:47.819Z,44.40
2022-08-02T20:45:18.341Z,44.49
2022-08-02T20:47:49.888Z,44.54
2022-08-02T20:50:37.002Z,44.49
2022-08-02T20:53:06.079Z,44.38
2022-08-02T20:55:35.624Z,44.16
2022-08-02T20:58:04.817Z,44.49
2022-08-02T21:00:35.124Z,44.23
2022-08-02T21:03:04.540Z,44.86
2022-08-02T21:05:54.318Z,44.64
2022-08-02T21:08:21.887Z,44.59
2022-08-02T21:10:52.301Z,44.63
2022-08-02T21:13:23.774Z,44.20
2022-08-02T21:15:55.411Z,44.59
2022-08-02T21:18:33.892Z,45.38
2022-08-02T21:21:08.783Z,44.88
2022-08-02T21:23:37.352Z,45.17
2022-08-02T21:26:06.504Z,45.16
2022-08-02T21:28:44.954Z,45.01
2022-08-02T21:31:15.878Z,45.45
2022-08-02T21:33:57.123Z,45.40
2022-08-02T21:36:30.652Z,45.59
2022-08-02T21:39:04.458Z,45.76
2022-08-02T21:41:39.720Z,46.02
2022-08-02T21:44:15.832Z,46.42
2022-08-02T21:46:46.663Z,46.33
2022-08-02T21:49:18.377Z,46.48
2022-08-02T21:51:49.252Z,46.02
2022-08-02T21:54:20.336Z,46.70
2022-08-02T21:59:39.150Z,46.83
2022-08-02T22:02:14.733Z,46.98
2022-08-02T22:04:47.506Z,47.19
2022-08-02T22:07:23.836Z,47.46
2022-08-02T22:09:53.067Z,47.40
2022-08-02T22:12:25.791Z,47.42
2022-08-02T22:14:56.421Z,47.64
2022-08-02T22:17:51.424Z,47.46
2022-08-02T22:20:20.175Z,47.70
2022-08-02T22:22:50.481Z,47.49
2022-08-02T22:25:36.022Z,47.56
2022-08-02T22:28:37.218Z,48.04
2022-08-02T22:31:04.338Z,47.87
2022-08-02T22:34:00.545Z,47.82
2022-08-02T22:36:30.969Z,48.42
2022-08-02T22:38:59.774Z,48.81
2022-08-02T22:42:01.374Z,48.61
2022-08-02T22:44:16.869Z,48.58
2022-08-02T22:46:46.995Z,48.95
2022-08-02T22:49:38.189Z,49.09
2022-08-02T22:52:08.055Z,49.26
2022-08-02T22:54:36.385Z,49.34
2022-08-02T22:57:06.563Z,49.24
2022-08-02T22:59:00.260Z,34.38
2022-08-02T22:59:06.569Z,43.18
2022-08-02T22:59:12.689Z,46.81
2022-08-02T22:59:40.617Z,49.13
2022-08-02T23:02:09.145Z,48.91
2022-08-02T23:04:39.887Z,49.00
2022-08-02T23:07:08.062Z,49.31
2022-08-02T23:09:35.965Z,48.63
2022-08-02T23:12:04.334Z,48.89
2022-08-02T23:14:32.677Z,48.50
2022-08-02T23:17:18.187Z,48.03
2022-08-02T23:19:53.450Z,48.32
2022-08-02T23:22:29.126Z,48.50
2022-08-02T23:24:58.709Z,48.44
2022-08-02T23:27:26.775Z,48.73
2022-08-02T23:29:55.042Z,49.01
2022-08-02T23:32:25.479Z,49.06
2022-08-02T23:34:55.605Z,49.24
2022-08-02T23:37:24.297Z,49.13
2022-08-02T23:39:52.799Z,49.13
2022-08-02T23:42:20.895Z,49.15
2022-08-02T23:44:49.068Z,49.11
2022-08-02T23:47:17.746Z,49.07
2022-08-02T23:49:45.784Z,49.18
2022-08-02T23:52:15.568Z,49.15
2022-08-02T23:54:43.602Z,49.35
2022-08-02T23:57:20.997Z,49.29
2022-08-02T23:59:51.028Z,49.23
